Kezdőlap
METAR-TAF:

METAR-TAF

Repülőterek :

Savonlinna, Finnország

földrajzi szélesség: 61-57N, földrajzi hosszúság: 028-57E, magasság: 95 m

Jelenlegi meteorológiai megfigyelések

A jelentés 39 perccel ezelõtt készült, 00:50 UTC
Nyugat-északnyugati szél 5 kt
Hőmérséklet -11°C
Páratartalom 85%
Légköri nyomás 998 hPa
Látótávolság 10 km, vagy több
felhőtlen 1500 m magasságban, és nincs gomolyfelhõ

METAR: EFSA 290050Z AUTO 29005KT CAVOK M11/M13 Q0998

Idő: 03:29 (01:29 UTC)


TAF: hiányzik

Meteorológiai megfigyelések és előrejelzések több, mint 4000 repülőtéren (METAR és TAF jelentéseket).

A térképen piros és sárga pontok jelzik az elérhető meteorológiai állomásokat.

Mozgassa az egeret a pont fölött, hogy megjelenjen az állomás neve.

Azután kattintson az időjárási megfigyelések és előrejelzések megtekintéséhez.

A térkép megváltoztatása: kattintson a fekete keresztel jelölt zöld gombra ráközelítéshez, a vonallal jelölt zöld gombra távolításhoz, vagy a zöld nyilakra a szomszédos térképek eléréséhez.


METAR-TAF: